Flight Track Log - Related Links

Times and Time Zones

All times are in EDT time to prevent confusion due to time zone crossing. See the RPA3392 flight status page for this flight to view local times or setup timezone preferences in your user account.

Time Position Orientation Groundspeed Altitude Reporting Facility
EDT Latitude Longitude Course Direction KTS MPH feet Rate Location/Type
Mon 05:58:55 PM 44.8333 -93.1667 115° Southeast 205 236 3,400  Level Minneapolis TRACON
Mon 05:59:49 PM 44.8167 -93.1000 109° East 253 291 5,200 2,077 Climbing Minneapolis TRACON
Mon 06:00:00 PM 44.7597 -92.7759 111° Southeast  Level Estimated
Mon 06:00:13 PM 44.8042 -93.0575 113° Southeast 269 310 6,100  Level Minneapolis Center
Mon 06:01:00 PM 44.7185 -92.6277 113° Southeast  Level Estimated
Mon 06:01:15 PM 44.7700 -92.9400 112° Southeast 322 371 8,500  Level Minneapolis Center
Mon 06:02:00 PM 44.6558 -92.4955 124° Southeast  Level FlightAware Approximate
Mon 06:02:17 PM 44.7406 -92.8392 112° Southeast 342 394 10,800  Level Minneapolis Center
Mon 06:03:00 PM 44.6027 -92.3447 117° Southeast  Level FlightAware Approximate
Mon 06:03:19 PM 44.6833 -92.6842 117° Southeast 375 432 13,700  Level Minneapolis Center
Mon 06:04:00 PM 44.5499 -92.1996 115° Southeast  Level FlightAware Approximate
Mon 06:04:20 PM 44.6447 -92.5797 117° Southeast 379 436 15,600  Level Minneapolis Center
Mon 06:05:22 PM 44.5842 -92.4186 118° Southeast 387 445 18,400 2,516 Climbing Minneapolis Center
Mon 06:06:24 PM 44.5208 -92.2497 118° Southeast 408 470 20,800 1,854 Climbing Minneapolis Center
Mon 06:07:25 PM 44.4778 -92.1331 117° Southeast 419 482 22,200 1,707 Climbing Minneapolis Center
Mon 06:08:27 PM 44.4106 -91.9553 118° Southeast 430 495 24,300 1,790 Climbing Minneapolis Center
Mon 06:09:29 PM 44.3528 -91.8022 118° Southeast 443 510 25,900 1,324 Climbing Minneapolis Center
Mon 06:10:43 PM 44.2928 -91.6489 119° Southeast 449 517 27,300 1,235 Climbing Minneapolis Center
Mon 06:11:45 PM 44.2214 -91.4572 117° Southeast 461 531 28,700 1,355 Climbing Minneapolis Center
Mon 06:12:47 PM 44.1503 -91.2742 118° Southeast 469 540 30,100 1,122 Climbing Minneapolis Center
Mon 06:13:48 PM 44.0881 -91.1114 118° Southeast 476 548 31,000 829 Climbing Minneapolis Center
Mon 06:14:50 PM 44.0244 -90.9486 118° Southeast 480 552 31,800 919 Climbing Minneapolis Center
Mon 06:15:52 PM 43.9600 -90.7842 119° Southeast 486 559 32,900 976 Climbing Minneapolis Center
Mon 06:16:53 PM 43.8956 -90.6208 119° Southeast 486 559 33,800 927 Climbing Minneapolis Center
Mon 06:17:55 PM 43.8189 -90.4278 119° Southeast 481 554 34,800 581 Climbing Minneapolis Center
Mon 06:18:57 PM 43.7553 -90.2658 118° Southeast 481 554 35,000 98 Climbing Minneapolis Center
Mon 06:19:58 PM 43.7081 -90.0972 111° Southeast 472 543 35,000  Level Minneapolis Center
Mon 06:21:00 PM 43.6800 -89.9233 103° East 465 535 35,000  Level Minneapolis Center
Mon 06:22:02 PM 43.6492 -89.7506 104° East 464 534 35,000  Level Minneapolis Center
Mon 06:23:04 PM 43.6181 -89.5786 104° East 462 532 35,000  Level Minneapolis Center
Mon 06:23:28 PM 43.6017 -89.4933 105° East 460 529 35,000  Level Chicago Center
Mon 06:24:30 PM 43.5686 -89.3214 105° East 463 533 35,000  Level Chicago Center
Mon 06:25:33 PM 43.5369 -89.1486 104° East 466 536 35,000  Level Chicago Center
Mon 06:26:35 PM 43.5042 -88.9733 104° East 470 541 35,000  Level Chicago Center
Mon 06:27:37 PM 43.4650 -88.7692 105° East 473 544 35,000  Level Chicago Center
Mon 06:28:39 PM 43.4317 -88.5928 105° East 475 547 35,000  Level Chicago Center
Mon 06:29:41 PM 43.3947 -88.4178 106° East 482 555 35,000  Level Chicago Center
Mon 06:30:43 PM 43.3583 -88.2219 104° East 478 550 35,000  Level Chicago Center
Mon 06:31:45 PM 43.3231 -88.0450 105° East 480 552 35,000  Level Chicago Center
Mon 06:32:47 PM 43.2881 -87.8703 105° East 477 549 35,000  Level Chicago Center
Mon 06:33:49 PM 43.2536 -87.6936 105° East 479 551 35,000  Level Chicago Center
Mon 06:34:51 PM 43.2181 -87.5167 105° East 480 552 35,000  Level Chicago Center
Mon 06:35:53 PM 43.1781 -87.3272 106° East 483 556 35,000  Level Chicago Center
Mon 06:36:55 PM 43.1433 -87.1514 105° East 481 554 35,000  Level Chicago Center
Mon 06:37:58 PM 43.1061 -86.9761 106° East 481 554 35,000  Level Chicago Center
Mon 06:39:00 PM 43.0625 -86.7653 106° East 481 554 35,000  Level Chicago Center
Mon 06:40:02 PM 43.0258 -86.5908 106° East 481 554 35,000  Level Chicago Center
Mon 06:41:04 PM 42.9886 -86.4181 106° East 478 550 35,000  Level Chicago Center
Mon 06:43:08 PM 42.9133 -86.0750 107° East 481 554 35,000  Level Chicago Center
Mon 06:44:10 PM 42.8692 -85.8703 106° East 482 555 35,000  Level Chicago Center
Mon 06:45:12 PM 42.8322 -85.7008 107° East 474 545 35,000  Level Chicago Center
Mon 06:46:14 PM 42.7942 -85.5325 107° East 470 541 35,000  Level Chicago Center
Mon 06:47:16 PM 42.7411 -85.3653 113° Southeast 485 558 35,000  Level Chicago Center
Mon 06:48:18 PM 42.6828 -85.1978 115° Southeast 492 566 35,000  Level Chicago Center
Mon 06:49:21 PM 42.6114 -84.9989 116° Southeast 490 564 35,000  Level Chicago Center
Mon 06:50:23 PM 42.5519 -84.8319 116° Southeast 493 567 35,000  Level Chicago Center
Mon 06:51:25 PM 42.4922 -84.6664 116° Southeast 491 565 35,000  Level Chicago Center
Mon 06:51:45 PM 42.4708 -84.6117 118° Southeast 481 554 35,000  Level Cleveland Center
Mon 06:52:45 PM 42.4097 -84.4475 117° Southeast 481 554 35,000  Level Cleveland Center
Mon 06:53:45 PM 42.3506 -84.2836 116° Southeast 481 554 35,000  Level Cleveland Center
Mon 06:54:45 PM 42.2911 -84.1200 116° Southeast 481 554 35,000  Level Cleveland Center
Mon 06:55:45 PM 42.2314 -83.9569 116° Southeast 481 554 35,000  Level Cleveland Center
Mon 06:56:45 PM 42.1694 -83.7939 117° Southeast 481 554 35,000  Level Cleveland Center
Mon 06:57:45 PM 42.1092 -83.6314 117° Southeast 481 554 35,000  Level Cleveland Center
Mon 06:58:45 PM 42.0467 -83.4661 117° Southeast 486 559 35,000  Level Cleveland Center
Mon 06:59:45 PM 41.9628 -83.3142 127° Southeast 502 578 35,000  Level Cleveland Center
Mon 07:00:45 PM 41.8475 -83.1589 135° Southeast 521 600 35,000  Level Cleveland Center
Mon 07:01:45 PM 41.7422 -83.0183 135° Southeast 527 606 35,000  Level Cleveland Center
Mon 07:02:45 PM 41.6569 -82.9067 136° Southeast 532 612 35,000  Level Cleveland Center
Mon 07:03:45 PM 41.5311 -82.7383 135° Southeast 532 612 35,000  Level Cleveland Center
Mon 07:04:45 PM 41.4272 -82.6047 136° Southeast 527 606 35,000  Level Cleveland Center
Mon 07:05:45 PM 41.3211 -82.4658 135° Southeast 527 606 35,000  Level Cleveland Center
Mon 07:06:45 PM 41.2169 -82.3306 136° Southeast 527 606 35,000  Level Cleveland Center
Mon 07:07:45 PM 41.1128 -82.1953 136° Southeast 527 606 35,000  Level Cleveland Center
Mon 07:08:45 PM 41.0061 -82.0606 136° Southeast 527 606 35,000  Level Cleveland Center
Mon 07:09:45 PM 40.9014 -81.9264 136° Southeast 527 606 35,000  Level Cleveland Center
Mon 07:10:45 PM 40.7944 -81.7900 136° Southeast 527 606 35,000  Level Cleveland Center
Mon 07:11:45 PM 40.6894 -81.6564 136° Southeast 527 606 35,000  Level Cleveland Center
Mon 07:12:45 PM 40.5844 -81.5208 136° Southeast 527 606 35,000  Level Cleveland Center
Mon 07:13:45 PM 40.4853 -81.3992 137° Southeast 532 612 35,000  Level Cleveland Center
Mon 07:14:45 PM 40.3800 -81.2644 136° Southeast 532 612 35,000  Level Cleveland Center
Mon 07:15:45 PM 40.2742 -81.1300 136° Southeast 527 606 35,000  Level Cleveland Center
Mon 07:16:45 PM 40.1664 -80.9986 137° Southeast 527 606 35,000  Level Cleveland Center
Mon 07:17:45 PM 40.0606 -80.8625 135° Southeast 527 606 35,000  Level Cleveland Center
Mon 07:18:45 PM 39.9544 -80.7267 136° Southeast 527 606 35,000  Level Cleveland Center
Mon 07:19:45 PM 39.8544 -80.5858 133° Southeast 527 606 35,000  Level Cleveland Center
Mon 07:20:45 PM 39.7461 -80.4344 133° Southeast 527 606 35,000  Level Cleveland Center
Mon 07:21:45 PM 39.6519 -80.2919 131° Southeast 527 606 35,000  Level Cleveland Center
Mon 07:22:15 PM 39.6186 -80.2200 121° Southeast 517 595 35,000  Level Washington Center
Mon 07:23:14 PM 39.5600 -80.0572 115° Southeast 494 568 35,000  Level Washington Center
Mon 07:24:14 PM 39.4994 -79.8947 116° Southeast 494 568 35,000 -1,339 Level Washington Center
Mon 07:25:15 PM 39.4361 -79.7325 117° Southeast 499 574 32,300 -2,034 Descending Washington Center
Mon 07:26:12 PM 39.3750 -79.5681 116° Southeast 504 580 31,000 -712 Descending Washington Center
Mon 07:27:13 PM 39.3158 -79.4064 115° Southeast 498 573 30,900 -1,190 Descending Washington Center
Mon 07:28:13 PM 39.2619 -79.2614 116° Southeast 473 544 28,600 -1,934 Descending Washington Center
Mon 07:29:14 PM 39.2392 -79.1183 102° East 418 481 27,000 -1,289 Descending Washington Center
Mon 07:30:14 PM 39.2264 -78.9783 97° East 408 470 26,000 -1,438 Descending Washington Center
Mon 07:31:15 PM 39.2114 -78.8383 98° East 397 457 24,100 -1,983 Descending Washington Center
Mon 07:32:15 PM 39.1983 -78.7064 97° East 385 443 22,000 -1,983 Descending Washington Center
Mon 07:33:13 PM 39.1869 -78.5775 96° East 372 428 20,200 -1,815 Descending Washington Center
Mon 07:34:14 PM 39.1731 -78.4592 99° East 352 405 18,400 -1,721 Descending Washington Center
Mon 07:35:15 PM 39.1572 -78.3406 100° East 340 391 16,700 -1,261 Descending Washington Center
Mon 07:36:13 PM 39.1306 -78.2300 107° East 328 377 15,900 -756 Descending Washington Center
Mon 07:37:14 PM 39.1056 -78.1328 108° East 322 371 15,200 -843 Descending Washington Center
Mon 07:38:14 PM 39.0764 -78.0222 109° East 322 371 14,200 -992 Descending Washington Center
Mon 07:39:15 PM 39.0494 -77.9142 108° East 322 371 13,200 -1,361 Descending Washington Center
Mon 07:40:13 PM 39.0203 -77.8039 109° East 322 371 11,500 -1,059 Descending Washington Center
Mon 07:42:05 PM 38.9667 -77.5833 107° East 316 364 10,200 -1,012 Descending Potomac TRACON
Mon 07:42:59 PM 38.9333 -77.5000 117° Southeast 305 351 8,700 -1,526 Descending Potomac TRACON
Mon 07:43:59 PM 38.9000 -77.4000 113° Southeast 288 331 7,300 -1,289 Descending Potomac TRACON
Mon 07:45:00 PM 38.8500 -77.3167 128° Southeast 267 307 6,100 -619 Descending Potomac TRACON
Mon 07:46:05 PM 38.8167 -77.2500 123° Southeast 213 245 6,000 -95 Descending Potomac TRACON
Mon 07:47:06 PM 38.8000 -77.1833 108° East 215 247 5,900 -496 Descending Potomac TRACON
Mon 07:48:06 PM 38.7667 -77.1167 123° Southeast 209 241 5,000 -450 Descending Potomac TRACON
Mon 07:49:06 PM 38.7167 -77.1167 180° South 193 222 5,000 -263 Level Potomac TRACON
Mon 07:50:00 PM 38.6667 -77.1000 165° South 191 220 4,500 -526 Descending Potomac TRACON
Mon 07:51:00 PM 38.6000 -77.1000 180° South 190 219 4,000 -300 Descending Potomac TRACON
Mon 07:52:00 PM 38.5500 -77.1000 180° South 202 232 3,900 -500 Descending Potomac TRACON
Mon 07:53:00 PM 38.5833 -77.0500 50° Northeast 168 193 3,000 -450 Descending Potomac TRACON
Mon 07:54:00 PM 38.6167 -77.0500 360° North 150 173 3,000 -150 Level Potomac TRACON
Mon 07:55:00 PM 38.6667 -77.0333 15° North 140 161 2,700 -300 Descending Potomac TRACON

Login

Don't have an account? Register now (free) for customized features, flight alerts, and more!